Time;durP1;ratioP1;P1;durP2;ratioP2;P2;SDS_P1;SDS_P2;PMS_P1;PMS_P2;Temp;Humidity;BMP_temperature;BMP_pressure;BME280_temperature;BME280_humidity;BME280_pressure;Samples;Min_cycle;Max_cycle;Signal;HPM_P1;HPM_P2
2022/11/16 00:00:31;;;;;;;13.40;11.60;;;10.20;99.90;;;;;;5037744;28;20048;-76
2022/11/16 00:03:00;;;;;;;12.63;11.27;;;10.10;99.90;;;;;;5018801;28;20043;-76
2022/11/16 00:05:27;;;;;;;15.80;12.20;;;10.10;99.90;;;;;;5027704;28;20552;-77
2022/11/16 00:07:52;;;;;;;13.93;11.98;;;10.10;99.90;;;;;;5018254;28;20041;-76
2022/11/16 00:10:18;;;;;;;13.35;11.95;;;10.10;99.90;;;;;;5010142;28;20037;-76
2022/11/16 00:12:44;;;;;;;13.63;11.80;;;10.20;99.90;;;;;;5031875;28;20487;-76
2022/11/16 00:15:09;;;;;;;13.85;12.40;;;10.20;99.90;;;;;;5006290;28;20044;-76
2022/11/16 00:17:35;;;;;;;14.27;12.80;;;10.10;99.90;;;;;;5019690;28;20041;-76
2022/11/16 00:20:00;;;;;;;16.48;12.65;;;10.10;99.90;;;;;;5013995;28;20091;-77
2022/11/16 00:22:26;;;;;;;13.73;12.27;;;10.10;99.90;;;;;;5010323;28;20541;-77
2022/11/16 00:24:52;;;;;;;15.57;12.88;;;10.10;99.90;;;;;;5035547;28;20513;-77
2022/11/16 00:27:17;;;;;;;15.85;12.98;;;10.10;99.90;;;;;;5035317;28;20037;-77
2022/11/16 00:29:43;;;;;;;13.00;11.70;;;10.10;99.90;;;;;;5033752;28;20047;-76
2022/11/16 00:32:09;;;;;;;15.90;12.27;;;10.10;99.90;;;;;;5017457;28;20033;-77
2022/11/16 00:34:34;;;;;;;15.95;12.88;;;10.10;99.90;;;;;;5033103;28;20524;-77
2022/11/16 00:37:00;;;;;;;18.15;13.32;;;10.20;99.90;;;;;;5033265;28;20070;-76
2022/11/16 00:39:26;;;;;;;14.45;12.98;;;10.20;99.90;;;;;;5006943;28;20403;-76
2022/11/16 00:41:51;;;;;;;23.88;14.63;;;10.20;99.90;;;;;;5006251;28;20121;-77
2022/11/16 00:44:17;;;;;;;18.00;13.98;;;10.20;99.90;;;;;;5033512;28;20064;-77
2022/11/16 00:46:43;;;;;;;16.77;13.18;;;10.20;99.90;;;;;;5016802;28;20509;-77
2022/11/16 00:49:09;;;;;;;17.58;14.52;;;10.20;99.90;;;;;;5016357;28;20029;-77
2022/11/16 00:51:35;;;;;;;20.17;14.70;;;10.20;99.90;;;;;;5012416;28;20294;-76
2022/11/16 00:54:03;;;;;;;17.63;14.00;;;10.20;99.90;;;;;;5036282;28;20453;-76
2022/11/16 00:56:28;;;;;;;17.88;15.02;;;10.20;99.90;;;;;;5023936;28;20550;-77
2022/11/16 00:58:54;;;;;;;18.92;14.70;;;10.20;99.90;;;;;;5032368;28;20052;-77
2022/11/16 01:01:19;;;;;;;20.77;15.23;;;10.20;99.90;;;;;;5032043;28;20080;-76
2022/11/16 01:03:46;;;;;;;20.23;15.00;;;10.20;99.90;;;;;;5003153;28;20064;-76
2022/11/16 01:06:13;;;;;;;19.60;15.02;;;10.30;99.90;;;;;;5012920;28;20125;-76
2022/11/16 01:08:40;;;;;;;22.13;15.93;;;10.30;99.90;;;;;;5036524;28;20037;-76
2022/11/16 01:13:51;;;;;;;19.15;15.48;;;10.30;99.90;;;;;;5036157;28;20111;-76
2022/11/16 01:16:19;;;;;;;20.23;16.20;;;10.30;99.90;;;;;;5036811;28;20045;-76
2022/11/16 01:18:50;;;;;;;32.95;18.00;;;10.30;99.90;;;;;;5019814;28;20124;-76
2022/11/16 01:21:16;;;;;;;18.95;15.80;;;10.30;99.90;;;;;;5016971;28;20053;-76
2022/11/16 01:23:42;;;;;;;22.10;17.25;;;10.30;99.90;;;;;;5036824;28;20073;-76
2022/11/16 01:26:08;;;;;;;23.85;17.85;;;10.30;99.90;;;;;;5036576;28;20526;-76
2022/11/16 01:28:34;;;;;;;23.77;17.55;;;10.30;99.90;;;;;;5035087;28;20404;-76
2022/11/16 01:30:59;;;;;;;28.23;18.65;;;10.30;99.90;;;;;;5018066;28;20037;-76
2022/11/16 01:33:25;;;;;;;26.88;19.02;;;10.40;99.90;;;;;;5035783;28;20509;-76
2022/11/16 01:35:51;;;;;;;27.10;18.27;;;10.40;99.90;;;;;;5033082;28;20041;-76
2022/11/16 01:38:16;;;;;;;32.05;19.23;;;10.40;99.90;;;;;;5016644;28;20030;-76
2022/11/16 01:40:42;;;;;;;26.55;18.73;;;10.40;99.90;;;;;;5035630;28;20028;-76
2022/11/16 01:43:26;;;;;;;23.20;19.13;;;10.40;99.90;;;;;;5036034;28;20040;-76
2022/11/16 01:45:52;;;;;;;25.73;19.73;;;10.40;99.90;;;;;;5030288;28;20045;-77
2022/11/16 01:48:28;;;;;;;33.80;20.35;;;10.40;99.90;;;;;;5035235;28;20498;-77
2022/11/16 01:50:55;;;;;;;29.30;19.80;;;10.40;99.90;;;;;;5032663;28;20476;-77
2022/11/16 01:53:20;;;;;;;22.40;18.92;;;10.50;99.90;;;;;;5032710;28;20037;-77
2022/11/16 01:55:48;;;;;;;26.30;18.92;;;10.50;99.90;;;;;;5035170;28;20529;-77
2022/11/16 01:58:18;;;;;;;29.23;19.98;;;10.50;99.90;;;;;;5035549;28;20064;-78
2022/11/16 02:00:44;;;;;;;27.73;19.75;;;10.50;99.90;;;;;;5035641;28;20123;-77
2022/11/16 02:03:10;;;;;;;27.67;20.48;;;10.50;99.90;;;;;;5037745;28;20083;-77
2022/11/16 02:06:10;;;;;;;35.20;21.42;;;10.50;99.90;;;;;;5021219;28;20091;-77
2022/11/16 02:11:56;;;;;;;32.05;20.92;;;10.50;99.90;;;;;;5044036;28;20064;-78
2022/11/16 02:14:48;;;;;;;26.38;19.90;;;10.50;99.90;;;;;;5033990;28;20091;-77
2022/11/16 02:17:16;;;;;;;28.80;20.50;;;10.60;99.90;;;;;;5032141;28;20041;-78
2022/11/16 02:20:06;;;;;;;30.88;21.10;;;10.50;99.90;;;;;;5032609;28;20041;-77
2022/11/16 02:22:53;;;;;;;30.92;20.42;;;10.50;99.90;;;;;;5022515;28;20046;-78
2022/11/16 02:25:37;;;;;;;31.85;20.90;;;10.50;99.90;;;;;;5017744;28;20076;-77
2022/11/16 02:28:26;;;;;;;26.00;20.33;;;10.50;99.90;;;;;;5034503;28;20044;-78
2022/11/16 02:30:54;;;;;;;27.55;20.38;;;10.50;99.90;;;;;;5029340;28;20037;-78
2022/11/16 02:33:24;;;;;;;29.45;19.98;;;10.50;99.90;;;;;;5035223;28;20133;-78
2022/11/16 02:35:54;;;;;;;38.30;21.38;;;10.50;99.90;;;;;;5007587;28;20526;-77
2022/11/16 02:38:25;;;;;;;43.30;22.00;;;10.60;99.90;;;;;;5011247;28;20037;-78
2022/11/16 02:40:56;;;;;;;29.92;21.05;;;10.50;99.90;;;;;;5035617;28;20044;-77
2022/11/16 02:43:30;;;;;;;56.60;23.05;;;10.50;99.90;;;;;;5035071;28;20037;-78
2022/11/16 02:46:01;;;;;;;38.15;22.23;;;10.50;99.90;;;;;;5013082;28;20090;-78
2022/11/16 02:48:33;;;;;;;36.63;20.70;;;10.60;99.90;;;;;;5015551;28;20041;-78
2022/11/16 02:51:00;;;;;;;53.00;24.00;;;10.60;99.90;;;;;;5007318;28;20103;-78
2022/11/16 02:53:26;;;;;;;31.25;21.55;;;10.50;99.90;;;;;;5034628;28;20044;-77
2022/11/16 02:55:52;;;;;;;34.08;22.35;;;10.60;99.90;;;;;;5024255;28;20124;-78
2022/11/16 02:58:21;;;;;;;32.92;22.00;;;10.50;99.90;;;;;;5016113;28;20171;-78
2022/11/16 03:00:54;;;;;;;36.67;22.38;;;10.50;99.90;;;;;;5034267;28;20135;-78
2022/11/16 03:03:35;;;;;;;38.22;21.33;;;10.50;99.90;;;;;;5033658;28;20045;-78
2022/11/16 03:06:12;;;;;;;40.72;22.30;;;10.50;99.90;;;;;;4998946;28;20408;-78
2022/11/16 03:08:58;;;;;;;51.80;24.08;;;10.50;99.90;;;;;;5032805;28;20044;-78
2022/11/16 03:14:17;;;;;;;29.63;21.38;;;10.50;99.90;;;;;;5026675;28;20155;-78
2022/11/16 03:16:48;;;;;;;30.90;20.60;;;10.50;99.90;;;;;;5012604;28;20037;-78
2022/11/16 03:19:21;;;;;;;30.30;21.02;;;10.50;99.90;;;;;;5031302;28;20044;-78
2022/11/16 03:21:50;;;;;;;50.03;23.45;;;10.50;99.90;;;;;;5034264;28;20036;-78
2022/11/16 03:24:16;;;;;;;49.67;24.33;;;10.50;99.90;;;;;;5033317;28;20090;-78
2022/11/16 03:27:04;;;;;;;69.07;25.67;;;10.50;99.90;;;;;;5025620;28;20483;-78
2022/11/16 03:29:42;;;;;;;46.95;23.58;;;10.50;99.90;;;;;;5034361;28;20033;-79
2022/11/16 03:32:38;;;;;;;33.55;22.35;;;10.50;99.90;;;;;;5009721;28;20041;-78
2022/11/16 03:35:29;;;;;;;36.70;21.80;;;10.50;99.90;;;;;;5028557;28;20071;-79
2022/11/16 03:37:57;;;;;;;25.85;20.50;;;10.50;99.90;;;;;;5015111;28;20084;-78
2022/11/16 03:40:26;;;;;;;36.15;22.23;;;10.50;99.90;;;;;;5032487;28;20411;-78
2022/11/16 03:42:54;;;;;;;36.67;22.00;;;10.50;99.90;;;;;;5010164;28;20432;-78
2022/11/16 03:45:19;;;;;;;49.17;22.88;;;10.60;99.90;;;;;;5029722;28;20495;-78
2022/11/16 03:47:45;;;;;;;29.73;20.98;;;10.60;99.90;;;;;;5022873;28;21444;-78
2022/11/16 03:50:11;;;;;;;34.58;21.83;;;10.50;99.90;;;;;;5033092;28;20033;-78
2022/11/16 03:52:37;;;;;;;43.05;22.00;;;10.50;99.90;;;;;;5008418;28;20104;-78
2022/11/16 03:55:04;;;;;;;36.05;22.20;;;10.50;99.90;;;;;;5022376;28;20046;-78
2022/11/16 03:57:29;;;;;;;57.72;24.10;;;10.60;99.90;;;;;;5027627;28;20051;-79
2022/11/16 03:59:55;;;;;;;38.78;23.17;;;10.50;99.90;;;;;;5028437;28;20048;-78
2022/11/16 04:02:20;;;;;;;36.10;21.95;;;10.50;99.90;;;;;;5016576;28;20079;-79
2022/11/16 04:24:16;;;;;;;30.90;21.80;;;10.60;99.90;;;;;;5030242;28;20052;-79
2022/11/16 04:29:28;;;;;;;68.65;27.17;;;10.60;99.90;;;;;;5030481;28;20103;-79
2022/11/16 04:40:08;;;;;;;28.90;21.90;;;10.60;99.90;;;;;;5030135;28;20478;-78
2022/11/16 04:42:33;;;;;;;35.63;23.40;;;10.60;99.90;;;;;;5034272;28;20049;-80
2022/11/16 04:47:43;;;;;;;26.10;20.80;;;10.60;99.90;;;;;;5028636;28;20544;-79
2022/11/16 04:50:09;;;;;;;56.88;26.75;;;10.60;99.90;;;;;;5029219;28;20116;-79
2022/11/16 04:52:34;;;;;;;37.72;23.50;;;10.60;99.90;;;;;;5020358;28;20044;-79
2022/11/16 04:55:00;;;;;;;29.20;22.25;;;10.60;99.90;;;;;;5037416;28;20120;-79
2022/11/16 04:57:26;;;;;;;43.92;24.85;;;10.60;99.90;;;;;;5020267;28;20509;-80
2022/11/16 04:59:51;;;;;;;60.90;25.67;;;10.50;99.90;;;;;;5015190;28;20124;-79
2022/11/16 05:02:17;;;;;;;33.97;23.98;;;10.60;99.90;;;;;;5022417;28;20415;-79
2022/11/16 05:04:43;;;;;;;31.70;23.13;;;10.50;99.90;;;;;;5020488;28;20124;-79
2022/11/16 05:07:11;;;;;;;30.98;24.00;;;10.50;99.90;;;;;;5020258;28;20037;-79
2022/11/16 05:09:42;;;;;;;39.33;24.55;;;10.50;99.90;;;;;;5036942;28;20037;-79
2022/11/16 05:12:10;;;;;;;50.40;25.33;;;10.50;99.90;;;;;;5020545;28;20045;-78
2022/11/16 05:14:35;;;;;;;52.97;26.45;;;10.60;99.90;;;;;;5033752;28;20052;-79
2022/11/16 05:17:01;;;;;;;43.20;26.30;;;10.60;99.90;;;;;;5014050;28;20542;-79
2022/11/16 05:22:11;;;;;;;84.72;30.73;;;10.60;99.90;;;;;;5016917;28;20091;-79
2022/11/16 05:24:36;;;;;;;58.53;28.80;;;10.60;99.90;;;;;;5023258;28;20045;-78
2022/11/16 05:27:03;;;;;;;75.90;30.00;;;10.60;99.90;;;;;;5028087;28;20102;-78
2022/11/16 05:29:29;;;;;;;81.85;29.80;;;10.60;99.90;;;;;;5019739;28;20441;-78
2022/11/16 05:31:56;;;;;;;55.15;27.70;;;10.60;99.90;;;;;;5019064;28;20510;-78
2022/11/16 05:34:21;;;;;;;137.52;35.15;;;10.60;99.90;;;;;;5036292;28;20116;-77
2022/11/16 05:36:47;;;;;;;53.58;28.35;;;10.60;99.90;;;;;;5036231;28;20495;-78
2022/11/16 05:39:13;;;;;;;62.42;29.33;;;10.60;99.90;;;;;;5035844;28;20045;-77
2022/11/16 05:41:38;;;;;;;67.43;29.70;;;10.60;99.90;;;;;;5028039;28;20131;-77
2022/11/16 05:44:04;;;;;;;64.50;29.60;;;10.60;99.90;;;;;;5018957;28;20045;-77
2022/11/16 05:46:29;;;;;;;61.22;27.13;;;10.70;99.90;;;;;;5035863;28;20033;-78
2022/11/16 05:48:55;;;;;;;120.63;31.02;;;10.60;99.90;;;;;;5006157;28;20037;-77
2022/11/16 05:51:21;;;;;;;100.95;30.02;;;10.60;99.90;;;;;;5026854;28;20420;-77
2022/11/16 05:53:48;;;;;;;140.57;29.75;;;10.60;99.90;;;;;;5029519;28;20086;-77
2022/11/16 05:56:14;;;;;;;48.17;23.88;;;10.60;99.90;;;;;;5035710;28;20047;-77
2022/11/16 05:58:40;;;;;;;53.40;23.83;;;10.60;99.90;;;;;;5035145;28;20040;-78
2022/11/16 06:01:06;;;;;;;66.80;23.95;;;10.60;99.90;;;;;;5036484;28;20043;-77
2022/11/16 06:03:32;;;;;;;67.22;22.23;;;10.60;99.90;;;;;;5035712;28;20037;-78
2022/11/16 06:05:57;;;;;;;19.85;15.43;;;10.60;99.90;;;;;;5020540;28;20106;-78
2022/11/16 06:08:23;;;;;;;25.08;15.80;;;10.60;99.90;;;;;;5019841;28;20550;-78
2022/11/16 06:10:49;;;;;;;45.45;18.52;;;10.60;99.90;;;;;;5019440;28;20040;-78
2022/11/16 06:13:15;;;;;;;25.50;16.85;;;10.60;99.90;;;;;;5023703;28;20155;-78
2022/11/16 06:15:40;;;;;;;57.85;19.65;;;10.50;99.90;;;;;;5032510;28;20091;-78
2022/11/16 06:18:06;;;;;;;34.35;17.83;;;10.60;99.90;;;;;;5032709;28;20045;-78
2022/11/16 06:20:33;;;;;;;39.58;17.60;;;10.60;99.90;;;;;;5033405;28;20068;-78
2022/11/16 06:22:59;;;;;;;29.45;16.98;;;10.50;99.90;;;;;;5017170;28;20045;-78
2022/11/16 06:25:25;;;;;;;51.72;19.05;;;10.50;99.90;;;;;;5033242;28;20407;-78
2022/11/16 06:27:50;;;;;;;31.48;17.25;;;10.50;99.90;;;;;;5035621;28;20033;-78
2022/11/16 06:30:16;;;;;;;51.75;19.10;;;10.50;99.90;;;;;;5026333;28;20399;-78
2022/11/16 06:32:43;;;;;;;49.20;18.08;;;10.50;99.90;;;;;;5032037;28;20033;-78
2022/11/16 06:35:09;;;;;;;35.10;17.05;;;10.50;99.90;;;;;;5000173;28;20048;-78
2022/11/16 06:37:35;;;;;;;28.70;15.10;;;10.50;99.90;;;;;;5016357;28;20526;-78
2022/11/16 06:40:00;;;;;;;42.70;16.73;;;10.50;99.90;;;;;;5005559;28;20044;-78
2022/11/16 06:42:26;;;;;;;23.85;14.18;;;10.50;99.90;;;;;;5036004;28;20395;-78
2022/11/16 06:44:51;;;;;;;22.00;13.38;;;10.40;99.90;;;;;;5041097;28;20075;-78
2022/11/16 06:47:17;;;;;;;36.47;15.00;;;10.40;99.90;;;;;;5019799;28;20036;-78
2022/11/16 06:49:43;;;;;;;37.90;15.43;;;10.40;99.90;;;;;;5036674;28;20040;-78
2022/11/16 06:52:08;;;;;;;23.67;13.77;;;10.40;99.90;;;;;;5035858;28;20044;-78
2022/11/16 06:54:34;;;;;;;29.65;14.32;;;10.40;99.90;;;;;;5035850;28;20053;-78
2022/11/16 06:56:59;;;;;;;27.70;13.05;;;10.40;99.90;;;;;;5032396;28;20110;-78
2022/11/16 06:59:25;;;;;;;31.75;13.60;;;10.30;99.90;;;;;;5027013;28;20052;-78
2022/11/16 07:01:50;;;;;;;32.78;14.38;;;10.30;99.90;;;;;;5017856;28;20039;-78
2022/11/16 07:04:16;;;;;;;31.25;13.40;;;10.30;99.90;;;;;;5030925;28;20488;-78
2022/11/16 07:06:42;;;;;;;32.13;12.85;;;10.30;99.90;;;;;;5015602;28;20044;-78
2022/11/16 07:09:08;;;;;;;23.92;13.05;;;10.20;99.90;;;;;;5032917;28;20123;-78
2022/11/16 07:11:35;;;;;;;18.92;12.50;;;10.20;99.90;;;;;;5030273;28;20037;-78
2022/11/16 07:14:01;;;;;;;28.35;14.68;;;10.20;99.90;;;;;;5017518;28;20043;-78
2022/11/16 07:16:27;;;;;;;55.35;17.80;;;10.20;99.90;;;;;;5008088;28;20803;-78
2022/11/16 07:18:55;;;;;;;35.60;18.05;;;10.20;99.90;;;;;;4998522;28;20045;-78
2022/11/16 07:21:20;;;;;;;44.92;20.08;;;10.20;99.90;;;;;;4998567;28;20468;-78
2022/11/16 07:23:46;;;;;;;61.88;22.98;;;10.20;99.90;;;;;;5035367;28;20127;-78
2022/11/16 07:26:12;;;;;;;51.78;22.88;;;10.20;99.90;;;;;;5031292;28;20033;-78
2022/11/16 07:28:38;;;;;;;108.35;26.80;;;10.20;99.90;;;;;;5033526;28;20112;-78
2022/11/16 07:31:08;;;;;;;54.70;22.80;;;10.20;99.90;;;;;;5002569;28;20077;-79
2022/11/16 07:33:35;;;;;;;89.45;25.25;;;10.20;99.90;;;;;;5024404;28;20547;-78
2022/11/16 07:36:12;;;;;;;118.93;29.23;;;10.10;99.90;;;;;;5034404;28;20526;-78
2022/11/16 07:38:38;;;;;;;81.72;25.63;;;10.20;99.90;;;;;;5023515;28;20037;-79
2022/11/16 07:41:09;;;;;;;47.05;23.70;;;10.20;99.90;;;;;;5015727;28;20048;-79
2022/11/16 07:43:35;;;;;;;63.75;25.42;;;10.20;99.90;;;;;;5033948;28;20041;-79
2022/11/16 07:46:15;;;;;;;141.90;27.33;;;10.20;99.90;;;;;;5041068;28;20037;-79
2022/11/16 07:48:41;;;;;;;74.28;25.10;;;10.20;99.90;;;;;;5035027;28;20104;-79
2022/11/16 07:51:09;;;;;;;113.03;28.08;;;10.20;99.90;;;;;;5035602;28;20526;-79
2022/11/16 07:53:35;;;;;;;103.57;25.15;;;10.20;99.90;;;;;;5016769;28;20044;-79
2022/11/16 07:56:02;;;;;;;58.40;22.98;;;10.20;99.90;;;;;;5032614;28;20043;-79
2022/11/16 07:58:29;;;;;;;120.63;27.63;;;10.20;99.90;;;;;;5032936;28;20029;-79
2022/11/16 08:01:03;;;;;;;44.03;20.50;;;10.20;99.90;;;;;;5027090;28;20123;-79
2022/11/16 08:03:29;;;;;;;38.85;19.25;;;10.20;99.90;;;;;;5035236;28;20454;-79
2022/11/16 08:06:04;;;;;;;56.95;19.55;;;10.20;99.90;;;;;;5018092;28;20053;-79
2022/11/16 08:08:30;;;;;;;65.30;20.15;;;10.20;99.90;;;;;;5025591;28;20045;-79
2022/11/16 08:11:03;;;;;;;51.60;20.00;;;10.20;99.90;;;;;;5033846;28;20087;-78
2022/11/16 08:13:30;;;;;;;43.60;17.50;;;10.30;99.90;;;;;;5016469;28;20033;-79
2022/11/16 08:16:17;;;;;;;36.67;17.00;;;10.30;99.90;;;;;;5034348;28;20045;-79
2022/11/16 08:18:44;;;;;;;36.80;17.00;;;10.30;99.90;;;;;;5017952;28;20556;-79
2022/11/16 08:23:46;;;;;;;35.63;17.23;;;10.30;99.90;;;;;;5051008;28;20060;-77
2022/11/16 08:26:20;;;;;;;60.50;19.00;;;10.30;99.90;;;;;;5013782;28;20503;-79
2022/11/16 08:29:01;;;;;;;44.83;17.58;;;10.30;99.90;;;;;;5019448;28;20099;-78
2022/11/16 08:31:30;;;;;;;64.65;18.95;;;10.40;99.90;;;;;;5031470;28;20503;-78
2022/11/16 08:37:27;;;;;;;25.10;15.77;;;10.50;99.90;;;;;;5032596;28;20514;-79
2022/11/16 08:40:32;;;;;;;36.22;16.40;;;10.50;99.90;;;;;;5023740;28;20049;-78
2022/11/16 08:43:52;;;;;;;79.43;20.75;;;10.50;99.90;;;;;;5036310;28;20049;-79
2022/11/16 08:46:32;;;;;;;45.53;19.65;;;10.60;99.90;;;;;;5035757;28;20045;-79
2022/11/16 08:49:11;;;;;;;35.72;18.27;;;10.70;99.90;;;;;;5018456;28;20041;-79
2022/11/16 08:51:40;;;;;;;39.33;19.52;;;10.70;99.90;;;;;;5014746;28;20077;-78
2022/11/16 08:54:08;;;;;;;28.90;18.35;;;10.80;99.90;;;;;;5014192;28;20063;-79
2022/11/16 08:56:55;;;;;;;47.15;21.35;;;10.80;99.90;;;;;;5019606;28;20480;-78
2022/11/16 08:59:23;;;;;;;33.92;19.52;;;10.90;99.90;;;;;;5018725;28;20037;-78
2022/11/16 09:02:09;;;;;;;47.00;19.77;;;10.90;99.90;;;;;;5033675;28;20445;-79
2022/11/16 09:04:35;;;;;;;41.72;19.70;;;10.90;99.90;;;;;;5034575;28;20068;-79
2022/11/16 09:07:00;;;;;;;33.05;20.05;;;10.90;99.90;;;;;;5034542;28;20071;-79
2022/11/16 09:09:26;;;;;;;35.60;20.17;;;10.90;99.90;;;;;;5035636;28;20064;-78
2022/11/16 09:11:59;;;;;;;41.03;21.55;;;11.00;99.90;;;;;;5035114;28;20051;-78
2022/11/16 09:14:46;;;;;;;35.72;21.13;;;11.00;99.90;;;;;;5011118;28;20044;-78
2022/11/16 09:17:48;;;;;;;35.28;19.80;;;11.00;99.90;;;;;;5032269;28;20091;-78
2022/11/16 09:20:41;;;;;;;33.33;20.60;;;11.00;99.90;;;;;;5040153;28;20095;-78
2022/11/16 09:26:29;;;;;;;42.00;22.15;;;11.10;99.90;;;;;;5029769;28;20048;-77
2022/11/16 09:32:23;;;;;;;24.00;17.63;;;11.20;99.90;;;;;;5037205;28;20041;-78
2022/11/16 09:34:52;;;;;;;33.22;18.85;;;11.20;99.90;;;;;;5038114;28;20127;-77
2022/11/16 09:37:23;;;;;;;63.38;22.10;;;11.20;99.90;;;;;;5019017;28;20048;-76
2022/11/16 09:39:49;;;;;;;20.80;15.38;;;11.20;99.90;;;;;;5014881;28;20052;-77
2022/11/16 09:46:10;;;;;;;19.48;15.35;;;11.20;99.90;;;;;;5035434;28;20041;-77
2022/11/16 09:48:40;;;;;;;17.65;13.55;;;11.20;99.90;;;;;;5023094;28;20076;-77
2022/11/16 09:51:10;;;;;;;19.08;14.25;;;11.20;99.90;;;;;;5018758;28;20037;-77
2022/11/16 09:53:58;;;;;;;16.75;13.45;;;11.20;99.90;;;;;;5033710;28;20084;-77
2022/11/16 09:56:30;;;;;;;15.90;11.88;;;11.20;99.90;;;;;;5019836;28;20041;-80
2022/11/16 09:59:07;;;;;;;13.93;11.63;;;11.20;99.90;;;;;;5023705;28;20037;-77
2022/11/16 10:01:36;;;;;;;13.85;11.25;;;11.10;99.90;;;;;;5034928;28;20496;-77
2022/11/16 10:04:15;;;;;;;13.23;10.85;;;11.00;99.90;;;;;;5029286;28;20033;-77
2022/11/16 10:07:19;;;;;;;12.40;9.98;;;10.90;99.90;;;;;;5036222;28;20136;-77
2022/11/16 10:09:49;;;;;;;16.55;9.82;;;10.80;99.90;;;;;;5018531;28;20083;-78
2022/11/16 10:12:42;;;;;;;12.63;9.73;;;10.80;99.90;;;;;;5028104;28;20101;-78
2022/11/16 10:15:27;;;;;;;;;;;10.80;99.90;;;;;;5039517;28;20099;-78
2022/11/16 10:18:12;;;;;;;12.07;9.13;;;10.70;99.90;;;;;;5013467;28;19925;-78
2022/11/16 10:20:57;;;;;;;15.48;7.90;;;10.80;99.90;;;;;;5016979;28;20037;-79
2022/11/16 10:23:33;;;;;;;11.52;7.03;;;10.90;99.90;;;;;;5000929;28;20045;-80
2022/11/16 10:26:11;;;;;;;11.18;7.30;;;10.80;99.90;;;;;;5009969;28;20037;-79
2022/11/16 10:28:51;;;;;;;8.90;6.13;;;10.70;99.90;;;;;;5013702;28;20140;-80
2022/11/16 10:31:27;;;;;;;10.63;6.32;;;10.70;99.90;;;;;;5035539;28;20387;-79
2022/11/16 10:33:54;;;;;;;8.38;5.30;;;10.60;99.90;;;;;;5023054;28;20049;-80
2022/11/16 10:36:26;;;;;;;14.40;6.30;;;10.50;99.90;;;;;;5017049;28;20044;-79
2022/11/16 10:38:54;;;;;;;9.45;5.53;;;10.50;99.90;;;;;;5019978;28;20067;-79
2022/11/16 10:41:30;;;;;;;9.25;5.47;;;10.50;99.90;;;;;;5033705;28;20487;-79
2022/11/16 10:43:57;;;;;;;14.23;7.13;;;10.50;99.90;;;;;;5018807;28;20455;-79
2022/11/16 10:46:38;;;;;;;10.30;5.38;;;10.60;99.90;;;;;;5024391;28;20048;-78
2022/11/16 10:49:29;;;;;;;10.40;5.45;;;10.80;99.90;;;;;;5025650;28;20069;-77
2022/11/16 10:51:55;;;;;;;8.75;5.40;;;10.80;99.90;;;;;;5013047;28;20036;-77
2022/11/16 10:54:21;;;;;;;12.20;5.10;;;10.90;99.90;;;;;;5032684;28;20036;-77
2022/11/16 10:56:54;;;;;;;10.20;5.03;;;10.90;99.90;;;;;;5016763;28;20137;-78
2022/11/16 10:59:37;;;;;;;9.70;4.90;;;10.80;99.90;;;;;;5015796;28;20048;-78
2022/11/16 11:02:26;;;;;;;14.00;6.70;;;10.80;99.90;;;;;;5015611;28;20048;-78
2022/11/16 11:05:20;;;;;;;10.00;5.53;;;10.70;99.90;;;;;;5012253;28;20040;-78
2022/11/16 11:07:58;;;;;;;10.88;6.07;;;10.70;99.90;;;;;;5031812;28;20045;-78
2022/11/16 11:10:39;;;;;;;9.05;5.18;;;10.90;99.90;;;;;;5030237;28;20044;-77
2022/11/16 11:13:10;;;;;;;8.75;4.22;;;11.00;99.90;;;;;;5030308;28;20033;-78
2022/11/16 11:15:43;;;;;;;11.35;4.70;;;11.10;99.90;;;;;;5018279;28;20045;-78
2022/11/16 11:18:26;;;;;;;;;;;11.30;99.90;;;;;;5017615;28;20099;-77
2022/11/16 11:21:05;;;;;;;13.82;5.18;;;11.30;99.90;;;;;;5010685;28;19978;-76
2022/11/16 11:24:02;;;;;;;13.55;5.18;;;11.50;99.90;;;;;;5022350;28;20048;-79
2022/11/16 11:26:34;;;;;;;10.68;4.60;;;11.60;99.90;;;;;;5008080;28;20049;-77
2022/11/16 11:29:04;;;;;;;10.07;4.68;;;11.50;99.90;;;;;;5033116;28;20047;-78
2022/11/16 11:31:48;;;;;;;11.45;4.72;;;11.40;99.90;;;;;;5038941;28;20037;-78
2022/11/16 11:34:22;;;;;;;9.45;4.63;;;11.40;99.90;;;;;;5026093;28;20041;-78
2022/11/16 11:36:56;;;;;;;13.15;4.75;;;11.50;99.90;;;;;;5014219;28;20044;-78
2022/11/16 11:39:21;;;;;;;7.70;3.92;;;11.50;99.90;;;;;;5025267;28;20045;-77
2022/11/16 11:42:01;;;;;;;9.40;4.70;;;11.40;99.90;;;;;;4999090;28;20450;-78
2022/11/16 11:44:37;;;;;;;7.63;4.65;;;11.40;99.90;;;;;;5021783;28;20077;-77
2022/11/16 11:47:32;;;;;;;10.52;5.22;;;11.50;99.90;;;;;;5017208;28;20053;-77
2022/11/16 11:50:10;;;;;;;9.93;4.93;;;11.70;99.90;;;;;;5030157;28;20445;-78
2022/11/16 11:53:19;;;;;;;8.98;5.30;;;11.60;99.90;;;;;;5018735;28;20041;-77
2022/11/16 11:55:45;;;;;;;8.52;5.05;;;11.50;99.90;;;;;;4960420;28;20054;-77
2022/11/16 11:58:17;;;;;;;8.95;5.13;;;11.50;99.90;;;;;;4961161;28;20138;-77
2022/11/16 12:01:10;;;;;;;8.45;5.05;;;11.50;99.90;;;;;;4986205;28;20056;-77
2022/11/16 12:04:04;;;;;;;9.52;5.32;;;11.60;99.90;;;;;;5015494;28;20041;-77
2022/11/16 12:06:50;;;;;;;10.82;5.07;;;11.60;99.90;;;;;;5012672;28;20491;-77
2022/11/16 12:09:36;;;;;;;9.10;4.65;;;11.60;99.90;;;;;;5031174;28;20048;-77
2022/11/16 12:12:30;;;;;;;9.27;4.88;;;11.50;99.90;;;;;;5027493;28;20041;-78
2022/11/16 12:15:34;;;;;;;11.25;4.57;;;11.50;99.90;;;;;;5032595;28;20395;-77
2022/11/16 12:18:08;;;;;;;;;;;11.40;99.90;;;;;;4994562;28;20049;-77
2022/11/16 12:20:56;;;;;;;10.05;4.20;;;11.40;99.90;;;;;;5023764;28;19939;-78
2022/11/16 12:23:45;;;;;;;7.93;4.40;;;11.50;99.90;;;;;;4992709;28;20136;-77
2022/11/16 12:26:19;;;;;;;9.70;3.67;;;11.50;99.90;;;;;;5013863;28;20053;-77
2022/11/16 12:29:03;;;;;;;8.35;3.50;;;11.60;99.90;;;;;;5035614;28;20491;-78
2022/11/16 12:31:40;;;;;;;6.00;3.22;;;11.70;99.90;;;;;;5032509;28;20475;-76
2022/11/16 12:34:21;;;;;;;7.45;2.88;;;11.80;99.90;;;;;;5019860;28;20045;-76
2022/11/16 12:37:02;;;;;;;7.90;3.20;;;11.90;99.90;;;;;;5032917;28;20556;-76
2022/11/16 12:39:42;;;;;;;11.43;3.90;;;11.90;99.90;;;;;;5028048;28;20036;-77
2022/11/16 12:42:07;;;;;;;7.40;3.17;;;11.90;99.90;;;;;;5041809;28;20048;-77
2022/11/16 12:45:15;;;;;;;5.05;2.97;;;11.90;99.90;;;;;;5013872;28;20846;-76
2022/11/16 12:47:58;;;;;;;7.15;3.25;;;11.90;99.90;;;;;;5010092;28;20045;-76
2022/11/16 12:50:54;;;;;;;9.98;3.38;;;11.90;99.90;;;;;;5031109;28;20407;-77
2022/11/16 12:53:38;;;;;;;9.73;3.15;;;11.80;99.90;;;;;;5029639;28;20033;-74
2022/11/16 12:56:33;;;;;;;6.60;2.58;;;11.60;99.90;;;;;;5028911;28;20052;-77
2022/11/16 12:59:27;;;;;;;12.10;3.70;;;11.60;99.90;;;;;;5028399;28;20053;-76
2022/11/16 13:02:20;;;;;;;6.60;2.45;;;11.60;99.90;;;;;;5030560;28;20045;-76
2022/11/16 13:04:57;;;;;;;9.60;2.72;;;11.50;99.90;;;;;;5029862;28;20132;-76
2022/11/16 13:07:29;;;;;;;6.30;2.53;;;11.40;99.90;;;;;;5028720;28;20136;-76
2022/11/16 13:10:02;;;;;;;9.32;2.88;;;11.40;99.90;;;;;;5037140;28;20041;-76
2022/11/16 13:12:30;;;;;;;8.02;3.08;;;11.30;99.90;;;;;;5037228;28;20135;-76
2022/11/16 13:14:58;;;;;;;11.10;3.05;;;11.30;99.90;;;;;;5036976;28;20049;-76
2022/11/16 13:17:30;;;;;;;11.02;2.58;;;11.20;99.90;;;;;;5034368;28;20418;-76
2022/11/16 13:20:17;;;;;;;10.38;2.47;;;11.30;99.90;;;;;;5031395;28;20128;-76
2022/11/16 13:23:06;;;;;;;7.88;2.50;;;11.30;99.90;;;;;;5037109;28;20048;-76
2022/11/16 13:25:43;;;;;;;8.23;2.70;;;11.30;99.90;;;;;;5036686;28;20041;-76
2022/11/16 13:28:39;;;;;;;10.52;2.58;;;11.30;99.90;;;;;;5034475;28;20075;-75
2022/11/16 13:31:20;;;;;;;10.25;2.53;;;11.30;99.90;;;;;;5025107;28;20510;-76
2022/11/16 13:33:48;;;;;;;6.93;2.08;;;11.30;99.90;;;;;;5000530;28;20076;-76
2022/11/16 13:36:38;;;;;;;11.25;2.38;;;11.30;99.90;;;;;;5018899;28;20094;-76
2022/11/16 13:39:05;;;;;;;7.82;2.40;;;11.20;99.90;;;;;;5034509;28;20499;-76
2022/11/16 13:41:33;;;;;;;9.57;2.83;;;11.20;99.90;;;;;;5011791;28;20120;-76
2022/11/16 13:44:01;;;;;;;7.18;2.50;;;11.10;99.90;;;;;;5036194;28;20045;-76
2022/11/16 13:46:46;;;;;;;9.23;2.17;;;11.00;99.90;;;;;;5035436;28;20052;-76
2022/11/16 13:49:18;;;;;;;8.10;2.13;;;11.00;99.90;;;;;;5019637;28;20065;-76
2022/11/16 13:51:54;;;;;;;6.40;2.10;;;11.00;99.90;;;;;;5022401;28;20041;-76
2022/11/16 13:54:32;;;;;;;9.88;2.28;;;10.90;99.90;;;;;;5027972;28;20175;-76
2022/11/16 13:57:00;;;;;;;11.48;2.50;;;11.00;99.90;;;;;;5036051;28;20033;-76
2022/11/16 13:59:29;;;;;;;9.27;2.10;;;10.90;99.90;;;;;;5018968;28;20075;-76